Weather at RAF Odiham

Public forecast

Using degrees Celsius for public forecast. Weather courtesy of forecast.io.

Current aviation weather report (METAR) for RAF Odiham

2024/04/13 09:20 (retrieved 48 minutes ago)

EGVO 130920Z AUTO 20010KT 9999 OVC010/// 14/10 Q1023

Aviation forecast (TAF) for RAF Odiham

Forecast is more than 12 hours old.

2024/04/12 18:36 (retrieved 16 hours ago)

TAF TAF EGVO 121832Z 1218/1306 CNL